Time;durP1;ratioP1;P1;durP2;ratioP2;P2;SDS_P1;SDS_P2;PMS_P1;PMS_P2;Temp;Humidity;BMP_temperature;BMP_pressure;BME280_temperature;BME280_humidity;BME280_pressure;Samples;Min_cycle;Max_cycle;Signal;HPM_P1;HPM_P2
2023/08/29 00:02:24;;;;;;;;;1.50;0.75;;;;;16.08;69.76;98586.00;5074803;28;45373;-69
2023/08/29 00:04:49;;;;;;;;;0.50;0.50;;;;;16.03;69.66;98592.50;5075349;28;45321;-69
2023/08/29 00:07:15;;;;;;;;;0.00;0.00;;;;;16.02;69.45;98576.66;5075476;28;45797;-71
2023/08/29 00:09:40;;;;;;;;;0.00;0.00;;;;;15.99;69.17;98563.56;5073814;28;45692;-70
2023/08/29 00:12:06;;;;;;;;;0.50;0.50;;;;;16.00;68.77;98568.78;5074633;28;45578;-70
2023/08/29 00:14:31;;;;;;;;;2.00;0.25;;;;;15.97;71.00;98584.94;5075227;28;45392;-70
2023/08/29 00:16:57;;;;;;;;;0.75;0.75;;;;;15.95;70.65;98578.88;5075143;28;45333;-70
2023/08/29 00:19:22;;;;;;;;;1.25;1.00;;;;;15.96;70.23;98571.75;5075102;27;45313;-69
2023/08/29 00:21:47;;;;;;;;;1.25;1.25;;;;;15.96;69.29;98577.06;5075052;28;45861;-69
2023/08/29 00:24:14;;;;;;;;;1.00;1.00;;;;;15.95;69.23;98568.25;5075096;27;45352;-69
2023/08/29 00:26:39;;;;;;;;;0.00;0.00;;;;;15.95;69.66;98584.19;5074786;27;45433;-69
2023/08/29 00:29:04;;;;;;;;;1.50;1.00;;;;;15.92;69.29;98603.03;5074778;28;45500;-69
2023/08/29 00:31:30;;;;;;;;;1.00;1.00;;;;;15.93;71.45;98577.28;5074495;28;45383;-69
2023/08/29 00:33:57;;;;;;;;;0.50;0.50;;;;;15.88;69.71;98580.28;5074644;28;45422;-70
2023/08/29 00:36:22;;;;;;;;;1.40;0.60;;;;;15.86;69.16;98584.00;5074608;28;45426;-69
2023/08/29 00:38:47;;;;;;;;;0.50;0.00;;;;;15.85;71.34;98571.69;5074859;28;45368;-69
2023/08/29 00:41:13;;;;;;;;;1.50;1.50;;;;;15.84;71.18;98572.63;5075004;28;46300;-70
2023/08/29 00:43:38;;;;;;;;;1.50;1.50;;;;;15.81;70.98;98570.19;5074904;28;45359;-70
2023/08/29 00:46:04;;;;;;;;;0.25;0.25;;;;;15.79;70.39;98570.28;5074625;28;45612;-68
2023/08/29 00:48:31;;;;;;;;;0.00;0.00;;;;;15.77;70.34;98563.38;5074645;28;45477;-70
2023/08/29 00:50:57;;;;;;;;;0.00;0.00;;;;;15.78;70.06;98571.25;5074501;28;46001;-70
2023/08/29 00:53:27;;;;;;;;;0.60;0.60;;;;;15.80;69.63;98568.47;5074319;28;45346;-70
2023/08/29 00:55:53;;;;;;;;;0.00;0.00;;;;;15.78;71.01;98573.06;5074865;28;45364;-70
2023/08/29 00:58:19;;;;;;;;;2.00;2.00;;;;;15.76;71.00;98578.47;5074562;28;45389;-68
2023/08/29 01:00:46;;;;;;;;;0.50;0.50;;;;;15.74;70.23;98580.41;5074483;28;46054;-70
2023/08/29 01:03:11;;;;;;;;;1.00;1.00;;;;;15.74;69.15;98576.91;5074106;28;45402;-70
2023/08/29 01:05:37;;;;;;;;;0.50;0.50;;;;;15.74;69.61;98558.31;5074561;28;45497;-70
2023/08/29 01:08:03;;;;;;;;;0.25;0.25;;;;;15.73;70.08;98577.84;5090143;27;45441;-70
2023/08/29 01:10:29;;;;;;;;;0.80;0.80;;;;;15.73;69.71;98569.88;5073898;27;46091;-71
2023/08/29 01:13:13;;;;;;;;;0.25;0.00;;;;;15.72;68.74;98555.75;5074448;28;45419;-70
2023/08/29 01:15:42;;;;;;;;;0.60;0.60;;;;;15.72;69.67;98565.53;5074408;27;45437;-68
2023/08/29 01:18:11;;;;;;;;;0.60;0.00;;;;;15.71;69.97;98577.97;5073818;27;45352;-68
2023/08/29 01:20:38;;;;;;;;;0.00;0.00;;;;;15.68;69.72;98547.13;5072429;28;47451;-68
2023/08/29 01:23:26;;;;;;;;;0.80;0.00;;;;;15.69;68.77;98554.16;5074138;27;45433;-70
2023/08/29 01:26:12;;;;;;;;;0.80;0.80;;;;;15.67;69.78;98545.44;5078273;27;45448;-70
2023/08/29 01:28:38;;;;;;;;;0.80;0.60;;;;;15.64;69.48;98564.25;5077435;28;45454;-70
2023/08/29 01:31:05;;;;;;;;;0.60;0.60;;;;;15.64;68.58;98563.38;5075649;28;45814;-70
2023/08/29 01:33:30;;;;;;;;;1.40;0.60;;;;;15.66;70.04;98538.41;5075782;28;45734;-69
2023/08/29 01:35:56;;;;;;;;;0.00;0.00;;;;;15.63;68.88;98567.84;5077353;28;45427;-70
2023/08/29 01:38:21;;;;;;;;;1.25;1.25;;;;;15.61;69.94;98545.84;5077099;28;45409;-70
2023/08/29 01:40:46;;;;;;;;;0.50;0.50;;;;;15.57;69.73;98546.19;5076213;28;47690;-70
2023/08/29 01:43:12;;;;;;;;;0.50;0.50;;;;;15.55;68.48;98586.16;5077786;28;45362;-70
2023/08/29 01:45:38;;;;;;;;;1.00;0.50;;;;;15.55;68.88;98548.06;5077283;27;45315;-70
2023/08/29 01:48:04;;;;;;;;;0.50;0.50;;;;;15.54;68.55;98549.88;5076392;28;45527;-70
2023/08/29 01:50:31;;;;;;;;;1.50;0.50;;;;;15.56;69.27;98571.06;5076912;28;47354;-72
2023/08/29 01:52:59;;;;;;;;;0.60;0.60;;;;;15.53;68.35;98574.75;5077475;28;45470;-70
2023/08/29 01:55:25;;;;;;;;;0.80;0.60;;;;;15.55;68.23;98574.63;5077344;28;45340;-70
2023/08/29 01:57:53;;;;;;;;;0.60;0.60;;;;;15.56;69.61;98550.66;5077336;28;45336;-70
2023/08/29 02:00:19;;;;;;;;;0.00;0.00;;;;;15.56;69.09;98555.97;5077274;28;45502;-71
2023/08/29 02:02:45;;;;;;;;;1.00;1.00;;;;;15.59;70.54;98546.91;5076670;28;45479;-70
2023/08/29 02:05:10;;;;;;;;;0.25;0.25;;;;;15.61;70.22;98548.50;5077343;28;45348;-70
2023/08/29 02:07:35;;;;;;;;;0.00;0.00;;;;;15.65;68.39;98549.16;5077226;28;45544;-70
2023/08/29 02:10:01;;;;;;;;;0.50;0.25;;;;;15.68;69.86;98551.59;5076850;28;46617;-69
2023/08/29 02:12:27;;;;;;;;;0.75;0.75;;;;;15.68;68.99;98552.44;5076958;28;45384;-69
2023/08/29 02:14:52;;;;;;;;;0.50;0.50;;;;;15.69;69.40;98543.53;5077121;28;45412;-70
2023/08/29 02:17:18;;;;;;;;;1.00;0.25;;;;;15.70;69.19;98541.72;5076621;28;45441;-70
2023/08/29 02:19:43;;;;;;;;;0.00;0.00;;;;;15.70;66.20;98558.50;5076818;28;45417;-71
2023/08/29 02:22:09;;;;;;;;;0.75;0.75;;;;;15.69;69.42;98540.88;5077092;28;45320;-74
2023/08/29 02:24:34;;;;;;;;;0.00;0.00;;;;;15.71;67.05;98556.69;5077148;28;45282;-70
2023/08/29 02:27:00;;;;;;;;;1.50;0.75;;;;;15.72;68.81;98545.13;5076648;28;45423;-70
2023/08/29 02:29:25;;;;;;;;;0.00;0.00;;;;;15.71;67.53;98546.06;5076713;28;45364;-70
2023/08/29 02:31:50;;;;;;;;;0.25;0.25;;;;;15.72;66.00;98546.91;5076511;28;45267;-70
2023/08/29 02:34:16;;;;;;;;;0.00;0.00;;;;;15.72;66.54;98558.41;5076177;28;45351;-70
2023/08/29 02:36:41;;;;;;;;;0.50;0.50;;;;;15.72;67.44;98558.41;5075485;28;45344;-70
2023/08/29 02:39:07;;;;;;;;;0.25;0.25;;;;;15.70;66.03;98545.22;5075186;28;45504;-70
2023/08/29 02:41:33;;;;;;;;;0.00;0.00;;;;;15.68;64.91;98543.63;5076703;28;45392;-70
2023/08/29 02:43:58;;;;;;;;;0.25;0.25;;;;;15.63;65.98;98543.94;5076762;28;45411;-70
2023/08/29 02:46:23;;;;;;;;;1.75;0.50;;;;;15.62;66.92;98542.22;5076237;28;45344;-70
2023/08/29 02:48:49;;;;;;;;;0.25;0.25;;;;;15.61;66.68;98537.03;5076199;28;46129;-71
2023/08/29 02:51:14;;;;;;;;;0.00;0.00;;;;;15.57;65.88;98551.50;5076295;28;45440;-70
2023/08/29 02:53:39;;;;;;;;;1.00;1.00;;;;;15.58;66.57;98545.22;5076330;28;45379;-70
2023/08/29 02:56:05;;;;;;;;;1.50;0.50;;;;;15.56;65.95;98541.84;5074904;28;45534;-70
2023/08/29 02:58:30;;;;;;;;;0.25;0.25;;;;;15.52;67.80;98535.84;5076124;28;46321;-69
2023/08/29 03:00:59;;;;;;;;;0.00;0.00;;;;;15.50;66.80;98556.34;5075679;28;45411;-71
2023/08/29 03:03:26;;;;;;;;;1.00;1.00;;;;;15.51;65.94;98541.25;5076193;28;45484;-69
2023/08/29 03:05:58;;;;;;;;;1.00;1.00;;;;;15.47;67.17;98543.28;5076350;28;45407;-70
2023/08/29 03:08:25;;;;;;;;;0.00;0.00;;;;;15.48;67.33;98536.16;5076294;28;46551;-70
2023/08/29 03:10:51;;;;;;;;;1.40;1.40;;;;;15.49;65.27;98540.50;5076232;28;45506;-70
2023/08/29 03:13:19;;;;;;;;;0.20;0.20;;;;;15.52;66.29;98530.53;5076244;28;45358;-70
2023/08/29 03:15:46;;;;;;;;;0.50;0.50;;;;;15.53;67.47;98536.69;5108964;27;45493;-70
2023/08/29 03:18:11;;;;;;;;;0.60;0.60;;;;;15.52;65.08;98548.28;5075526;28;45434;-70
2023/08/29 03:20:40;;;;;;;;;0.75;0.00;;;;;15.51;65.89;98552.72;5076239;28;45383;-69
2023/08/29 03:23:05;;;;;;;;;1.80;0.80;;;;;15.48;65.74;98555.59;5075981;28;45364;-69
2023/08/29 03:25:31;;;;;;;;;0.50;0.50;;;;;15.49;68.25;98535.19;5076030;28;45373;-70
2023/08/29 03:27:56;;;;;;;;;0.00;0.00;;;;;15.51;66.16;98546.56;5074455;28;47197;-70
2023/08/29 03:30:21;;;;;;;;;0.50;0.50;;;;;15.51;67.52;98538.59;5076097;28;45455;-70
2023/08/29 03:32:50;;;;;;;;;0.00;0.00;;;;;15.50;66.18;98548.38;5075307;28;45424;-69
2023/08/29 03:35:15;;;;;;;;;0.60;0.40;;;;;15.50;67.61;98543.06;5074370;28;45855;-70
2023/08/29 03:37:41;;;;;;;;;1.50;0.50;;;;;15.49;66.39;98557.31;5075831;28;45655;-71
2023/08/29 03:40:07;;;;;;;;;1.50;1.00;;;;;15.47;66.45;98553.03;5075748;28;45447;-70
2023/08/29 03:42:32;;;;;;;;;0.40;0.40;;;;;15.44;66.66;98543.47;5075881;28;45399;-70
2023/08/29 03:44:58;;;;;;;;;0.50;0.50;;;;;15.44;66.19;98548.78;5075734;28;46136;-70
2023/08/29 03:47:23;;;;;;;;;0.00;0.00;;;;;15.41;67.20;98533.09;5073990;28;45348;-70
2023/08/29 03:49:49;;;;;;;;;1.00;1.00;;;;;15.38;67.33;98541.25;5074966;28;45369;-70
2023/08/29 03:52:26;;;;;;;;;1.50;0.50;;;;;15.32;68.08;98539.00;5075644;28;45381;-70
2023/08/29 03:54:52;;;;;;;;;0.60;0.20;;;;;15.30;67.47;98554.19;5075429;28;45510;-73
2023/08/29 03:57:18;;;;;;;;;0.80;0.80;;;;;15.29;66.70;98536.56;5075272;28;45772;-70
2023/08/29 03:59:43;;;;;;;;;0.00;0.00;;;;;15.31;67.69;98553.25;5075461;28;45703;-70
2023/08/29 04:02:08;;;;;;;;;1.50;1.50;;;;;15.32;69.14;98537.22;5074998;28;45381;-70
2023/08/29 04:04:35;;;;;;;;;1.00;1.00;;;;;15.30;67.45;98556.84;5075227;28;45494;-70
2023/08/29 04:07:01;;;;;;;;;1.00;1.00;;;;;15.28;66.30;98553.44;5074945;28;46178;-70
2023/08/29 04:09:26;;;;;;;;;0.75;0.00;;;;;15.30;67.74;98564.81;5075196;28;45464;-70
2023/08/29 04:11:51;;;;;;;;;0.00;0.00;;;;;15.29;67.65;98549.84;5075479;28;45579;-70
2023/08/29 04:14:17;;;;;;;;;1.00;1.00;;;;;15.26;67.47;98537.63;5073697;28;45356;-70
2023/08/29 04:16:44;;;;;;;;;1.00;1.00;;;;;15.24;68.50;98544.03;5074504;28;46300;-69
2023/08/29 04:19:09;;;;;;;;;2.00;0.80;;;;;15.22;68.30;98545.94;5075167;28;45378;-70
2023/08/29 04:21:35;;;;;;;;;1.00;1.00;;;;;15.25;67.90;98543.88;5075067;28;45696;-69
2023/08/29 04:24:00;;;;;;;;;0.25;0.25;;;;;15.25;67.26;98564.28;5074728;28;45390;-70
2023/08/29 04:26:25;;;;;;;;;0.00;0.00;;;;;15.23;68.11;98559.09;5074318;28;45634;-70
2023/08/29 04:28:51;;;;;;;;;0.00;0.00;;;;;15.23;67.67;98556.44;5074080;28;45368;-71
2023/08/29 04:31:19;;;;;;;;;1.00;1.00;;;;;15.23;68.51;98566.22;5074671;28;45384;-70
2023/08/29 04:33:45;;;;;;;;;1.00;1.00;;;;;15.23;67.28;98563.56;5073415;28;45404;-70
2023/08/29 04:36:10;;;;;;;;;0.75;0.75;;;;;15.26;67.32;98552.69;5074351;28;45439;-70
2023/08/29 04:38:36;;;;;;;;;1.25;1.25;;;;;15.27;68.53;98568.53;5072748;28;45508;-70
2023/08/29 04:41:03;;;;;;;;;1.75;1.00;;;;;15.25;67.38;98578.41;5074531;28;45381;-69
2023/08/29 04:43:29;;;;;;;;;1.80;1.80;;;;;15.25;67.45;98565.13;5074571;28;45313;-70
2023/08/29 04:45:54;;;;;;;;;1.00;1.00;;;;;15.24;68.34;98558.16;5073524;28;45808;-72
2023/08/29 04:48:20;;;;;;;;;1.00;1.00;;;;;15.22;66.04;98573.31;5074075;28;45360;-70
2023/08/29 04:50:45;;;;;;;;;0.00;0.00;;;;;15.26;68.06;98568.63;5074247;28;45557;-70
2023/08/29 04:53:11;;;;;;;;;0.25;0.25;;;;;15.22;67.41;98573.31;5074191;28;45438;-69
2023/08/29 04:55:37;;;;;;;;;2.00;1.00;;;;;15.20;67.37;98561.97;5074166;27;46346;-69
2023/08/29 04:58:02;;;;;;;;;1.00;1.00;;;;;15.19;68.09;98559.41;5075606;28;45310;-68
2023/08/29 05:00:28;;;;;;;;;1.00;1.00;;;;;15.17;68.42;98559.50;5078099;28;45336;-68
2023/08/29 05:02:54;;;;;;;;;0.80;0.80;;;;;15.17;68.97;98575.44;5076059;28;45467;-69
2023/08/29 05:05:20;;;;;;;;;0.20;0.20;;;;;15.16;67.64;98565.75;5077772;28;46161;-69
2023/08/29 05:07:45;;;;;;;;;1.25;1.25;;;;;15.17;68.54;98571.94;5077945;28;45458;-68
2023/08/29 05:10:11;;;;;;;;;1.00;1.00;;;;;15.19;66.85;98565.56;5077421;28;45385;-69
2023/08/29 05:12:36;;;;;;;;;0.25;0.25;;;;;15.23;66.81;98574.19;5077504;28;45496;-69
2023/08/29 05:15:02;;;;;;;;;0.00;0.00;;;;;15.25;67.75;98570.44;5076086;28;47995;-68
2023/08/29 05:17:27;;;;;;;;;2.00;0.00;;;;;15.26;69.09;98561.53;5077044;28;45368;-69
2023/08/29 05:19:53;;;;;;;;;0.50;0.50;;;;;15.29;67.84;98568.44;5077619;28;45696;-69
2023/08/29 05:22:18;;;;;;;;;1.75;1.00;;;;;15.33;68.44;98569.94;5077453;28;45469;-70
2023/08/29 05:24:43;;;;;;;;;0.75;0.75;;;;;15.36;67.04;98581.22;5077615;28;45376;-69
2023/08/29 05:27:09;;;;;;;;;1.00;1.00;;;;;15.41;68.64;98574.75;5075812;28;45357;-69
2023/08/29 05:29:34;;;;;;;;;0.75;0.75;;;;;15.43;68.29;98578.97;5076013;28;45411;-69
2023/08/29 05:32:00;;;;;;;;;0.50;0.50;;;;;15.43;69.42;98576.31;5074785;28;45272;-70
2023/08/29 05:34:25;;;;;;;;;1.75;1.00;;;;;15.41;68.59;98583.56;5075481;28;46615;-69
2023/08/29 05:36:51;;;;;;;;;0.50;0.50;;;;;15.40;68.54;98578.34;5076333;28;45479;-69
2023/08/29 05:39:16;;;;;;;;;1.00;1.00;;;;;15.42;69.30;98574.59;5076053;28;45448;-69
2023/08/29 05:41:42;;;;;;;;;0.00;0.00;;;;;15.43;68.25;98581.63;5077087;28;45448;-69
2023/08/29 05:44:07;;;;;;;;;0.00;0.00;;;;;15.44;67.90;98562.06;5076567;28;45438;-69
2023/08/29 05:46:33;;;;;;;;;0.50;0.50;;;;;15.46;69.00;98585.88;5076438;28;45313;-69
2023/08/29 05:48:59;;;;;;;;;0.00;0.00;;;;;15.48;69.63;98578.66;5076754;28;45487;-69
2023/08/29 05:51:27;;;;;;;;;3.00;1.00;;;;;15.52;68.36;98588.97;5076600;28;45530;-69
2023/08/29 05:53:53;;;;;;;;;1.00;0.60;;;;;15.58;67.83;98571.81;5076428;28;45459;-70
2023/08/29 05:56:19;;;;;;;;;1.60;1.00;;;;;15.60;69.01;98570.72;5076516;28;45325;-69
2023/08/29 05:58:45;;;;;;;;;0.00;0.00;;;;;15.61;66.75;98587.50;5109036;27;45342;-70
2023/08/29 06:01:11;;;;;;;;;0.00;0.00;;;;;15.62;68.65;98578.59;5076227;28;45580;-70
2023/08/29 06:03:36;;;;;;;;;2.40;1.00;;;;;15.64;67.86;98582.84;5076140;28;46185;-70
2023/08/29 06:06:03;;;;;;;;;0.25;0.25;;;;;15.68;68.47;98584.34;5076344;28;45287;-70
2023/08/29 06:08:29;;;;;;;;;1.80;1.40;;;;;15.68;66.73;98586.13;5076548;28;45348;-70
2023/08/29 06:10:54;;;;;;;;;1.40;1.00;;;;;15.71;67.81;98588.59;5075324;27;45445;-69
2023/08/29 06:13:20;;;;;;;;;0.00;0.00;;;;;15.72;67.40;98581.47;5076160;28;46387;-70
2023/08/29 06:15:45;;;;;;;;;0.75;0.50;;;;;15.73;68.47;98589.34;5075637;27;45420;-69
2023/08/29 06:18:11;;;;;;;;;1.50;1.50;;;;;15.79;66.25;98596.88;5076327;28;45436;-69
2023/08/29 06:20:36;;;;;;;;;1.25;1.25;;;;;15.81;66.32;98583.47;5076090;27;45390;-69
2023/08/29 06:23:03;;;;;;;;;0.00;0.00;;;;;15.81;66.46;98596.75;5075800;28;45422;-68
2023/08/29 06:25:29;;;;;;;;;1.00;1.00;;;;;15.80;66.81;98587.94;5075654;27;45432;-69
2023/08/29 06:27:54;;;;;;;;;0.00;0.00;;;;;15.81;66.18;98633.97;5075761;28;45409;-70
2023/08/29 06:30:20;;;;;;;;;0.50;0.50;;;;;15.76;65.45;98625.47;5075732;28;45391;-69
2023/08/29 06:32:45;;;;;;;;;0.75;0.75;;;;;15.73;65.99;98605.28;5075494;28;45642;-71
2023/08/29 06:35:11;;;;;;;;;1.50;1.50;;;;;15.70;66.47;98610.81;5074259;28;45322;-72
2023/08/29 06:37:37;;;;;;;;;0.50;0.50;;;;;15.72;66.39;98602.72;5074888;27;45420;-70
2023/08/29 06:40:05;;;;;;;;;1.00;1.00;;;;;15.73;66.68;98599.97;5074938;28;45594;-71
2023/08/29 06:42:31;;;;;;;;;0.80;0.80;;;;;15.78;65.24;98613.78;5074896;28;46410;-70
2023/08/29 06:44:58;;;;;;;;;0.00;0.00;;;;;15.80;66.69;98597.72;5074872;28;45472;-70
2023/08/29 06:47:26;;;;;;;;;2.40;0.60;;;;;15.86;65.73;98603.47;5074655;28;45490;-70
2023/08/29 06:49:55;;;;;;;;;2.00;2.00;;;;;15.85;66.27;98603.56;5072918;28;45418;-70
2023/08/29 06:52:21;;;;;;;;;0.80;0.20;;;;;15.82;65.78;98617.06;5075131;27;45511;-70
2023/08/29 06:54:46;;;;;;;;;0.60;0.60;;;;;15.80;66.44;98613.66;5074829;28;45430;-69
2023/08/29 06:57:12;;;;;;;;;0.00;0.00;;;;;15.81;66.69;98610.06;5074837;28;45994;-70
2023/08/29 06:59:38;;;;;;;;;0.75;0.75;;;;;15.87;67.74;98610.50;5074457;27;45585;-69
2023/08/29 07:02:04;;;;;;;;;0.60;0.60;;;;;15.95;67.75;98602.81;5074113;28;46662;-69
2023/08/29 07:04:29;;;;;;;;;0.50;0.50;;;;;16.05;67.33;98601.22;5074880;28;45371;-69
2023/08/29 07:06:55;;;;;;;;;1.00;1.00;;;;;16.14;67.03;98615.66;5074900;27;45405;-69
2023/08/29 07:09:20;;;;;;;;;0.75;0.75;;;;;16.22;66.78;98612.47;5074784;28;45481;-70
2023/08/29 07:11:46;;;;;;;;;0.75;0.75;;;;;16.30;67.63;98623.41;5074261;28;45316;-70
2023/08/29 07:14:11;;;;;;;;;2.25;1.75;;;;;16.38;67.61;98605.94;5072672;28;45425;-71
2023/08/29 07:16:36;;;;;;;;;1.00;0.75;;;;;16.49;66.98;98610.47;5073882;28;45399;-69
2023/08/29 07:19:02;;;;;;;;;3.00;1.00;;;;;16.55;67.83;98612.72;5074444;28;45557;-69
2023/08/29 07:21:28;;;;;;;;;0.75;0.75;;;;;16.64;67.59;98612.06;5074058;28;45524;-69
2023/08/29 07:23:54;;;;;;;;;1.00;1.00;;;;;16.79;67.34;98614.56;5074351;28;45426;-70
2023/08/29 07:26:20;;;;;;;;;1.60;1.00;;;;;16.84;65.44;98610.59;5074549;28;45440;-69
2023/08/29 07:28:45;;;;;;;;;1.75;1.75;;;;;16.90;66.92;98602.19;5074273;27;45409;-70
2023/08/29 07:31:11;;;;;;;;;1.50;0.00;;;;;17.02;64.82;98621.72;5073475;28;46567;-70
2023/08/29 07:33:36;;;;;;;;;2.25;2.00;;;;;16.97;64.22;98600.75;5073665;28;45393;-71
2023/08/29 07:36:02;;;;;;;;;1.00;1.00;;;;;16.98;64.24;98621.09;5073788;28;45526;-70
2023/08/29 07:38:28;;;;;;;;;1.00;1.00;;;;;16.95;64.64;98626.63;5073687;28;45510;-70
2023/08/29 07:40:53;;;;;;;;;0.25;0.25;;;;;16.90;64.53;98617.31;5073612;28;45321;-70
2023/08/29 07:43:19;;;;;;;;;1.00;1.00;;;;;16.79;64.35;98627.88;5074222;27;45398;-70
2023/08/29 07:45:45;;;;;;;;;3.25;1.00;;;;;16.70;63.40;98621.41;5074188;28;45438;-70
2023/08/29 07:48:11;;;;;;;;;2.60;1.00;;;;;16.58;64.19;98620.47;5073554;28;45545;-70
2023/08/29 07:50:36;;;;;;;;;2.00;1.00;;;;;16.51;64.13;98619.22;5073877;28;45589;-69
2023/08/29 07:53:02;;;;;;;;;0.50;0.50;;;;;16.49;64.47;98622.94;5073887;28;45303;-69
2023/08/29 07:55:27;;;;;;;;;1.50;1.50;;;;;16.48;63.81;98622.09;5074156;28;45679;-69
2023/08/29 07:57:52;;;;;;;;;0.00;0.00;;;;;16.50;64.07;98633.47;5073744;27;45462;-68
2023/08/29 08:00:18;;;;;;;;;0.75;0.75;;;;;16.50;65.39;98611.34;5073508;28;46221;-68
2023/08/29 08:02:44;;;;;;;;;1.25;0.75;;;;;16.53;66.08;98627.94;5072441;28;45384;-69
2023/08/29 08:05:15;;;;;;;;;0.80;0.80;;;;;16.61;66.15;98643.34;5073593;28;45581;-69
2023/08/29 08:07:42;;;;;;;;;1.40;1.40;;;;;16.66;64.34;98635.91;5071786;28;45317;-69
2023/08/29 08:10:09;;;;;;;;;0.80;0.80;;;;;16.74;64.41;98636.22;5072971;28;46452;-69
2023/08/29 08:12:35;;;;;;;;;1.20;1.00;;;;;16.76;63.90;98638.78;5073510;28;45389;-69
2023/08/29 08:15:01;;;;;;;;;1.00;1.00;;;;;16.76;63.58;98638.78;5071959;28;45578;-69
2023/08/29 08:17:26;;;;;;;;;3.20;1.00;;;;;16.77;63.28;98640.44;5073006;28;45417;-69
2023/08/29 08:19:52;;;;;;;;;3.00;2.00;;;;;16.76;64.33;98628.13;5073153;28;45754;-69
2023/08/29 08:22:17;;;;;;;;;1.00;1.00;;;;;16.84;65.03;98626.59;5072498;28;45380;-69
2023/08/29 08:24:43;;;;;;;;;0.00;0.00;;;;;16.94;65.29;98619.59;5072730;28;45482;-69
2023/08/29 08:27:08;;;;;;;;;1.25;1.25;;;;;17.03;65.28;98632.25;5072974;28;45378;-69
2023/08/29 08:29:34;;;;;;;;;1.25;1.25;;;;;17.09;62.98;98638.94;5073012;28;46608;-69
2023/08/29 08:32:00;;;;;;;;;1.50;1.50;;;;;17.12;63.99;98638.69;5072829;28;45355;-69
2023/08/29 08:34:25;;;;;;;;;1.25;1.25;;;;;17.18;62.44;98616.94;5073205;28;45356;-69
2023/08/29 08:36:51;;;;;;;;;2.00;1.75;;;;;17.15;61.68;98641.13;5071767;28;45584;-69
2023/08/29 08:39:17;;;;;;;;;2.75;1.00;;;;;17.13;62.87;98636.88;5071483;28;48239;-70
2023/08/29 08:41:42;;;;;;;;;1.00;1.00;;;;;17.17;65.34;98627.69;5073585;28;45421;-69
2023/08/29 08:44:11;;;;;;;;;1.25;1.25;;;;;17.19;61.93;98629.28;5073276;28;45376;-69
2023/08/29 08:46:38;;;;;;;;;1.00;1.00;;;;;17.23;62.90;98620.13;5072580;28;45545;-69
2023/08/29 08:49:04;;;;;;;;;1.60;1.00;;;;;17.29;64.13;98629.44;5073329;28;46688;-69
2023/08/29 08:51:31;;;;;;;;;3.00;1.60;;;;;17.41;62.89;98624.06;5073108;28;45408;-69
2023/08/29 08:53:56;;;;;;;;;0.00;0.00;;;;;17.58;64.67;98624.59;5073555;28;45708;-69
2023/08/29 08:56:23;;;;;;;;;0.00;0.00;;;;;17.78;63.45;98635.44;5073429;28;45595;-69
2023/08/29 08:58:49;;;;;;;;;1.00;1.00;;;;;17.95;60.43;98638.59;5073348;28;45611;-69
2023/08/29 09:01:15;;;;;;;;;2.00;1.00;;;;;17.94;60.35;98636.91;5072790;28;45455;-69
2023/08/29 09:03:41;;;;;;;;;1.75;1.75;;;;;17.91;58.71;98654.03;5072475;28;45523;-69
2023/08/29 09:06:07;;;;;;;;;1.00;1.00;;;;;17.83;59.30;98631.56;5072534;28;45534;-69
2023/08/29 09:08:34;;;;;;;;;1.00;1.00;;;;;17.81;60.68;98634.34;5072895;28;46190;-70
2023/08/29 09:11:01;;;;;;;;;3.00;1.00;;;;;17.80;59.70;98648.66;5073045;28;45515;-69
2023/08/29 09:13:26;;;;;;;;;1.00;1.00;;;;;17.75;60.54;98630.34;5072982;28;45332;-70
2023/08/29 09:15:52;;;;;;;;;1.00;1.00;;;;;17.74;60.03;98633.13;5072574;28;45463;-70
2023/08/29 09:18:24;;;;;;;;;1.50;1.00;;;;;17.75;60.87;98645.50;5072904;28;45384;-70
2023/08/29 09:20:53;;;;;;;;;1.00;1.00;;;;;17.76;60.38;98631.22;5072517;28;45420;-70
2023/08/29 09:23:23;;;;;;;;;3.00;2.00;;;;;17.77;60.26;98632.88;5072857;28;45521;-70
2023/08/29 09:25:56;;;;;;;;;4.20;2.60;;;;;17.81;61.43;98639.69;5072845;28;45594;-69
2023/08/29 09:28:22;;;;;;;;;2.00;0.00;;;;;17.87;59.52;98628.53;5071023;28;46550;-70
2023/08/29 09:30:48;;;;;;;;;0.40;0.40;;;;;17.88;59.69;98632.06;5072379;27;45437;-70
2023/08/29 09:33:20;;;;;;;;;1.50;1.50;;;;;17.86;60.31;98631.34;5072832;28;45430;-70
2023/08/29 09:35:45;;;;;;;;;2.00;1.80;;;;;17.81;59.45;98633.50;5070360;28;45454;-69
2023/08/29 09:38:11;;;;;;;;;0.75;0.50;;;;;17.72;57.86;98667.91;5072730;28;46469;-70
2023/08/29 09:40:50;;;;;;;;;3.00;0.00;;;;;17.70;61.11;98632.50;5072788;28;45419;-69
2023/08/29 09:43:16;;;;;;;;;3.00;2.00;;;;;17.71;57.74;98658.22;5072819;28;45414;-70
2023/08/29 09:45:47;;;;;;;;;1.00;1.00;;;;;17.68;59.49;98641.59;5074706;28;45368;-70
2023/08/29 09:48:13;;;;;;;;;1.00;1.00;;;;;17.64;60.66;98635.66;5073673;28;47491;-70
2023/08/29 09:50:40;;;;;;;;;1.00;1.00;;;;;17.57;58.99;98642.41;5075505;28;45437;-69
2023/08/29 09:53:08;;;;;;;;;0.00;0.00;;;;;17.56;61.46;98647.84;5075893;28;45378;-69
2023/08/29 09:55:43;;;;;;;;;0.60;0.60;;;;;17.54;59.11;98639.09;5075554;28;45345;-70
2023/08/29 09:58:10;;;;;;;;;1.00;1.00;;;;;17.53;60.57;98646.25;5075902;28;46253;-70
2023/08/29 10:00:36;;;;;;;;;0.80;0.80;;;;;17.52;60.86;98638.38;5075222;28;45428;-70
2023/08/29 10:03:06;;;;;;;;;2.00;2.00;;;;;17.50;60.31;98672.28;5075769;28;45412;-70
2023/08/29 10:05:36;;;;;;;;;1.80;1.80;;;;;17.46;60.02;98634.34;5075606;28;45391;-70
2023/08/29 10:08:41;;;;;;;;;1.00;1.00;;;;;17.44;61.12;98646.94;5075558;28;46480;-70
2023/08/29 10:11:07;;;;;;;;;0.60;0.60;;;;;17.43;60.59;98664.75;5072406;28;45482;-70
2023/08/29 10:13:34;;;;;;;;;1.00;1.00;;;;;17.47;61.31;98648.53;5075518;28;45466;-70
2023/08/29 10:16:01;;;;;;;;;0.00;0.00;;;;;17.49;60.74;98647.44;5074695;28;45538;-72
2023/08/29 10:18:28;;;;;;;;;1.00;1.00;;;;;17.54;60.53;98655.09;5075113;28;46365;-70
2023/08/29 10:20:55;;;;;;;;;3.00;1.20;;;;;17.65;59.62;98645.34;5091165;27;45429;-70
2023/08/29 10:23:22;;;;;;;;;1.60;1.60;;;;;17.74;60.54;98647.31;5075393;28;45387;-70
2023/08/29 10:25:48;;;;;;;;;0.20;0.20;;;;;17.82;59.37;98645.88;5075075;28;45341;-70
2023/08/29 10:28:16;;;;;;;;;1.00;1.00;;;;;17.91;59.76;98653.16;5075167;28;46497;-70
2023/08/29 10:30:51;;;;;;;;;1.40;1.00;;;;;17.96;59.55;98648.31;5074614;28;45376;-70
2023/08/29 10:33:19;;;;;;;;;1.40;1.40;;;;;18.03;58.72;98650.38;5075225;28;45455;-70
2023/08/29 10:35:47;;;;;;;;;1.80;1.80;;;;;18.12;59.62;98643.47;5074579;28;45308;-69
2023/08/29 10:38:15;;;;;;;;;2.20;2.20;;;;;18.19;59.36;98650.03;5075136;28;45560;-69
2023/08/29 10:40:41;;;;;;;;;1.80;1.80;;;;;18.26;57.31;98639.75;5075271;28;45451;-70
2023/08/29 10:43:20;;;;;;;;;1.00;1.00;;;;;18.29;57.13;98656.34;5075413;28;45383;-70
2023/08/29 10:45:48;;;;;;;;;2.00;2.00;;;;;18.37;58.41;98642.41;5074421;28;45531;-69
2023/08/29 10:48:17;;;;;;;;;2.40;2.20;;;;;18.46;59.63;98629.16;5075117;28;46431;-70
2023/08/29 10:50:48;;;;;;;;;1.00;1.00;;;;;18.60;57.63;98636.06;5075119;28;45322;-70
2023/08/29 10:53:22;;;;;;;;;1.80;1.60;;;;;18.77;60.20;98640.91;5074608;28;45388;-70
2023/08/29 10:56:03;;;;;;;;;1.40;1.00;;;;;18.95;55.31;98643.03;5074153;28;45474;-70
2023/08/29 10:58:45;;;;;;;;;2.00;2.00;;;;;18.97;56.29;98636.59;5074358;27;46150;-70
2023/08/29 11:01:36;;;;;;;;;1.20;1.00;;;;;19.04;57.48;98636.97;5074029;28;45396;-69
2023/08/29 11:04:12;;;;;;;;;2.00;2.00;;;;;19.18;59.58;98624.16;5073296;28;45375;-70
2023/08/29 11:06:54;;;;;;;;;2.40;1.00;;;;;19.32;56.53;98630.16;5074606;28;45559;-69
2023/08/29 11:09:21;;;;;;;;;3.00;2.00;;;;;19.39;56.96;98632.22;5074560;28;45394;-70
2023/08/29 11:12:22;;;;;;;;;1.60;1.60;;;;;19.51;54.79;98631.22;5072866;28;46111;-70
2023/08/29 11:14:58;;;;;;;;;2.80;2.20;;;;;19.58;56.96;98639.56;5011451;28;45525;-69
2023/08/29 11:17:25;;;;;;;;;1.40;1.00;;;;;19.47;55.97;98624.38;5064844;28;45527;-70
2023/08/29 11:19:55;;;;;;;;;1.20;1.20;;;;;19.37;55.06;98612.78;5072476;28;47156;-68
2023/08/29 11:22:31;;;;;;;;;1.20;1.20;;;;;19.30;55.98;98608.91;5074255;28;45418;-69
2023/08/29 11:24:57;;;;;;;;;2.00;2.00;;;;;19.32;55.98;98608.78;5074116;28;45361;-68
2023/08/29 11:27:30;;;;;;;;;2.00;2.00;;;;;19.43;56.11;98620.28;5073822;28;45440;-69
2023/08/29 11:29:55;;;;;;;;;1.40;1.40;;;;;19.57;55.52;98612.97;5072496;28;47085;-68
2023/08/29 11:32:21;;;;;;;;;0.50;0.50;;;;;19.63;56.80;98613.25;5073854;28;45371;-70
2023/08/29 11:34:53;;;;;;;;;3.75;2.00;;;;;19.75;57.85;98612.25;5074353;28;45411;-70